createdAt,value
2022-08-11T00:02:33.754Z,99322.22
2022-08-11T00:05:05.935Z,99317.50
2022-08-11T00:07:35.442Z,99315.16
2022-08-11T00:10:07.908Z,99332.91
2022-08-11T00:12:37.493Z,99325.72
2022-08-11T00:15:07.834Z,99326.75
2022-08-11T00:17:38.336Z,99328.03
2022-08-11T00:20:13.260Z,99331.97
2022-08-11T00:22:46.567Z,99328.59
2022-08-11T00:25:19.623Z,99326.28
2022-08-11T00:27:49.905Z,99321.19
2022-08-11T00:30:20.043Z,99320.91
2022-08-11T00:32:56.313Z,99323.47
2022-08-11T00:35:53.701Z,99330.91
2022-08-11T00:38:19.097Z,99333.41
2022-08-11T00:40:54.795Z,99337.03
2022-08-11T00:43:25.568Z,99333.34
2022-08-11T00:46:07.664Z,99332.41
2022-08-11T00:48:42.686Z,99332.84
2022-08-11T00:51:16.169Z,99321.91
2022-08-11T00:53:49.623Z,99333.09
2022-08-11T00:56:36.166Z,99325.66
2022-08-11T00:59:35.566Z,99329.00
2022-08-11T01:02:19.090Z,99328.22
2022-08-11T01:05:03.489Z,99335.59
2022-08-11T01:08:01.099Z,99339.06
2022-08-11T01:10:47.542Z,99330.22
2022-08-11T01:13:21.653Z,99332.44
2022-08-11T01:16:05.909Z,99337.31
2022-08-11T01:18:50.578Z,99334.19
2022-08-11T01:21:38.684Z,99329.16
2022-08-11T01:24:37.948Z,99336.84
2022-08-11T01:27:19.315Z,99330.22
2022-08-11T01:30:04.271Z,99331.84
2022-08-11T01:32:48.920Z,99334.63
2022-08-11T01:35:31.845Z,99338.47
2022-08-11T01:38:16.229Z,99340.00
2022-08-11T01:41:06.428Z,99339.06
2022-08-11T01:44:12.556Z,99339.97
2022-08-11T01:46:46.459Z,99339.88
2022-08-11T01:50:06.766Z,99338.94
2022-08-11T01:52:18.718Z,99346.97
2022-08-11T01:54:52.514Z,99347.50
2022-08-11T01:57:34.509Z,99351.72
2022-08-11T02:00:09.082Z,99340.84
2022-08-11T02:02:54.169Z,99344.34
2022-08-11T02:05:29.280Z,99338.41
2022-08-11T02:08:04.539Z,99343.50
2022-08-11T02:10:54.918Z,99347.78
2022-08-11T02:13:36.713Z,99345.44
2022-08-11T02:16:11.227Z,99334.81
2022-08-11T02:18:55.766Z,99341.59
2022-08-11T02:21:39.786Z,99343.16
2022-08-11T02:24:17.202Z,99337.69
2022-08-11T02:26:50.090Z,99344.16
2022-08-11T02:29:21.763Z,99344.22
2022-08-11T02:32:24.151Z,99331.75
2022-08-11T02:35:01.073Z,99347.38
2022-08-11T02:37:37.912Z,99338.38
2022-08-11T02:40:21.019Z,99340.59
2022-08-11T02:42:58.741Z,99338.81
2022-08-11T02:45:34.060Z,99335.84
2022-08-11T02:48:19.235Z,99350.09
2022-08-11T02:50:54.128Z,99337.78
2022-08-11T02:53:29.724Z,99346.63
2022-08-11T02:56:05.617Z,99346.56
2022-08-11T02:58:39.685Z,99349.28
2022-08-11T03:01:15.689Z,99347.47
2022-08-11T03:03:51.350Z,99348.94
2022-08-11T03:06:30.170Z,99353.94
2022-08-11T03:09:05.960Z,99362.63
2022-08-11T03:12:00.973Z,99360.88
2022-08-11T03:14:46.406Z,99353.63
2022-08-11T03:17:23.239Z,99355.69
2022-08-11T03:19:59.952Z,99355.00
2022-08-11T03:22:33.049Z,99358.66
2022-08-11T03:25:07.875Z,99354.28
2022-08-11T03:27:49.652Z,99361.63
2022-08-11T03:30:20.556Z,99360.16
2022-08-11T03:33:09.260Z,99359.78
2022-08-11T03:35:41.749Z,99364.00
2022-08-11T03:38:13.779Z,99360.22
2022-08-11T03:42:01.665Z,99371.22
2022-08-11T03:44:06.602Z,99361.72
2022-08-11T03:46:45.453Z,99358.84
2022-08-11T03:49:25.500Z,99364.41
2022-08-11T03:51:57.179Z,99360.28
2022-08-11T03:54:32.186Z,99358.09
2022-08-11T03:57:16.368Z,99365.06
2022-08-11T04:03:31.287Z,99362.19
2022-08-11T04:06:27.792Z,99361.19
2022-08-11T04:09:13.871Z,99366.34
2022-08-11T04:12:04.587Z,99362.22
2022-08-11T04:15:06.540Z,99365.75
2022-08-11T04:17:52.633Z,99369.06
2022-08-11T04:20:31.813Z,99364.50
2022-08-11T04:24:36.385Z,99365.16
2022-08-11T04:26:26.163Z,99359.56
2022-08-11T04:29:02.650Z,99364.00
2022-08-11T04:31:50.869Z,99370.34
2022-08-11T04:34:38.447Z,99370.34
2022-08-11T04:37:37.824Z,99365.75
2022-08-11T04:40:28.219Z,99360.16
2022-08-11T04:43:21.783Z,99356.63
2022-08-11T04:46:05.809Z,99365.13
2022-08-11T04:49:03.408Z,99363.66
2022-08-11T04:52:01.801Z,99364.63
2022-08-11T04:54:55.655Z,99367.06
2022-08-11T04:57:43.032Z,99370.25
2022-08-11T05:00:25.665Z,99365.53
2022-08-11T05:03:15.963Z,99374.66
2022-08-11T05:06:19.910Z,99377.94
2022-08-11T05:09:04.365Z,99365.31
2022-08-11T05:11:41.839Z,99368.97
2022-08-11T05:14:42.782Z,99372.31
2022-08-11T05:17:27.089Z,99368.69
2022-08-11T05:20:09.235Z,99366.38
2022-08-11T05:22:51.425Z,99369.97
2022-08-11T05:26:44.111Z,99366.81
2022-08-11T05:28:57.076Z,99360.34
2022-08-11T05:31:42.084Z,99370.34
2022-08-11T05:34:25.753Z,99371.16
2022-08-11T05:37:17.238Z,99371.44
2022-08-11T05:40:01.378Z,99370.47
2022-08-11T05:42:44.101Z,99375.91
2022-08-11T05:45:42.583Z,99375.13
2022-08-11T05:48:33.499Z,99375.28
2022-08-11T05:51:16.938Z,99376.19
2022-08-11T05:54:03.555Z,99373.88
2022-08-11T05:56:55.996Z,99380.59
2022-08-11T05:59:27.246Z,99375.97
2022-08-11T06:02:03.330Z,99378.59
2022-08-11T06:04:33.323Z,99374.97
2022-08-11T06:07:04.101Z,99383.16
2022-08-11T06:09:35.488Z,99377.78
2022-08-11T06:12:06.779Z,99376.91
2022-08-11T06:14:36.909Z,99379.59
2022-08-11T06:17:09.014Z,99383.22
2022-08-11T06:19:39.452Z,99381.59
2022-08-11T06:22:11.402Z,99383.47
2022-08-11T06:24:42.880Z,99382.38
2022-08-11T06:27:13.739Z,99384.91
2022-08-11T06:29:55.037Z,99375.34
2022-08-11T06:32:30.352Z,99378.72
2022-08-11T06:35:13.186Z,99374.03
2022-08-11T06:37:47.258Z,99371.16
2022-08-11T06:40:28.340Z,99372.72
2022-08-11T06:43:02.329Z,99381.41
2022-08-11T06:45:35.389Z,99378.78
2022-08-11T06:48:11.289Z,99382.47
2022-08-11T06:50:53.319Z,99378.63
2022-08-11T06:53:23.086Z,99383.34
2022-08-11T06:56:05.224Z,99383.00
2022-08-11T06:58:48.651Z,99377.41
2022-08-11T07:01:20.130Z,99378.69
2022-08-11T07:03:58.446Z,99383.38
2022-08-11T07:06:41.492Z,99374.47
2022-08-11T07:09:42.914Z,99367.97
2022-08-11T07:12:38.001Z,99363.09
2022-08-11T07:15:23.773Z,99362.34
2022-08-11T07:18:14.287Z,99357.09
2022-08-11T07:22:01.887Z,99360.97
2022-08-11T07:24:14.925Z,99357.25
2022-08-11T07:26:58.775Z,99359.59
2022-08-11T07:29:30.366Z,99356.50
2022-08-11T07:32:03.512Z,99356.09
2022-08-11T07:34:35.613Z,99357.25
2022-08-11T07:37:13.717Z,99349.00
2022-08-11T07:39:44.778Z,99355.00
2022-08-11T07:42:16.288Z,99354.31
2022-08-11T07:45:02.290Z,99357.13
2022-08-11T07:47:44.784Z,99349.91
2022-08-11T07:50:27.435Z,99348.06
2022-08-11T07:53:00.790Z,99340.56
2022-08-11T07:55:48.960Z,99341.66
2022-08-11T07:58:44.998Z,99343.03
2022-08-11T08:01:33.243Z,99341.69
2022-08-11T08:04:15.377Z,99331.25
2022-08-11T08:06:57.284Z,99343.44
2022-08-11T08:09:41.956Z,99342.34
2022-08-11T08:12:24.428Z,99339.94
2022-08-11T08:15:07.162Z,99337.78
2022-08-11T08:18:08.308Z,99342.38
2022-08-11T08:20:40.881Z,99336.19
2022-08-11T08:23:11.061Z,99328.09
2022-08-11T08:25:44.022Z,99334.63
2022-08-11T08:28:15.192Z,99331.09
2022-08-11T08:30:49.855Z,99333.81
2022-08-11T08:33:22.064Z,99339.44
2022-08-11T08:36:11.556Z,99332.41
2022-08-11T08:38:42.348Z,99333.22
2022-08-11T08:41:16.489Z,99344.28
2022-08-11T08:43:49.645Z,99332.34
2022-08-11T08:46:22.007Z,99332.13
2022-08-11T08:48:53.327Z,99326.69
2022-08-11T08:51:58.574Z,99330.97
2022-08-11T08:54:32.089Z,99323.69
2022-08-11T08:57:05.456Z,99327.50
2022-08-11T08:59:47.672Z,99331.22
2022-08-11T09:02:20.576Z,99314.06
2022-08-11T09:05:05.130Z,99322.13
2022-08-11T09:07:39.905Z,99323.16
2022-08-11T09:10:10.919Z,99324.25
2022-08-11T09:12:44.289Z,99319.91
2022-08-11T09:15:19.300Z,99322.25
2022-08-11T09:17:49.687Z,99325.41
2022-08-11T09:20:21.417Z,99320.19
2022-08-11T09:24:08.916Z,99310.41
2022-08-11T09:26:07.973Z,99310.66
2022-08-11T09:28:40.323Z,99315.47
2022-08-11T09:31:11.035Z,99319.47
2022-08-11T09:33:41.255Z,99320.50
2022-08-11T09:36:25.013Z,99306.16
2022-08-11T09:39:07.227Z,99306.13
2022-08-11T09:42:01.942Z,99317.59
2022-08-11T09:44:42.896Z,99309.31
2022-08-11T09:47:15.552Z,99306.84
2022-08-11T09:49:46.000Z,99296.88
2022-08-11T09:52:17.131Z,99306.97
2022-08-11T09:54:48.018Z,99301.75
2022-08-11T09:57:33.392Z,99306.25
2022-08-11T10:00:12.774Z,99298.69
2022-08-11T10:02:45.136Z,99308.22
2022-08-11T10:05:30.374Z,99299.91
2022-08-11T10:08:01.567Z,99298.19
2022-08-11T10:10:32.638Z,99297.16
2022-08-11T10:13:05.957Z,99287.84
2022-08-11T10:16:14.753Z,99290.09
2022-08-11T10:18:49.608Z,99286.97
2022-08-11T10:21:28.338Z,99290.53
2022-08-11T10:24:11.161Z,99285.59
2022-08-11T10:26:54.901Z,99293.25
2022-08-11T10:29:45.204Z,99281.19
2022-08-11T10:32:57.754Z,99271.06
2022-08-11T10:35:29.886Z,99271.78
2022-08-11T10:38:06.642Z,99274.25
2022-08-11T10:41:08.710Z,99274.19
2022-08-11T10:44:02.849Z,99277.47
2022-08-11T10:46:39.859Z,99261.78
2022-08-11T10:49:12.150Z,99267.44
2022-08-11T10:51:58.757Z,99272.00
2022-08-11T10:54:41.213Z,99265.78
2022-08-11T10:57:23.171Z,99259.28
2022-08-11T10:59:55.100Z,99258.44
2022-08-11T11:02:27.363Z,99259.97
2022-08-11T11:05:09.860Z,99254.53
2022-08-11T11:07:42.847Z,99251.06
2022-08-11T11:10:13.616Z,99248.66
2022-08-11T11:12:57.249Z,99239.06
2022-08-11T11:15:40.067Z,99238.00
2022-08-11T11:18:11.703Z,99240.31
2022-08-11T11:20:47.700Z,99230.25
2022-08-11T11:23:20.580Z,99232.03
2022-08-11T11:26:10.350Z,99236.69
2022-08-11T11:28:54.883Z,99226.56
2022-08-11T11:31:33.566Z,99213.47
2022-08-11T11:34:12.528Z,99215.81
2022-08-11T11:36:48.394Z,99218.03
2022-08-11T11:39:20.361Z,99221.66
2022-08-11T11:41:51.173Z,99223.97
2022-08-11T11:44:21.340Z,99219.66
2022-08-11T11:46:50.847Z,99204.03
2022-08-11T11:52:17.379Z,99199.22
2022-08-11T11:54:50.424Z,99180.34
2022-08-11T11:57:34.471Z,99182.84
2022-08-11T12:00:16.603Z,99174.25
2022-08-11T12:02:46.257Z,99167.03
2022-08-11T12:05:15.874Z,99168.44
2022-08-11T12:08:05.211Z,99162.56
2022-08-11T12:10:42.458Z,99165.91
2022-08-11T12:13:24.314Z,99172.06
2022-08-11T12:16:32.122Z,99169.94
2022-08-11T12:18:45.597Z,99155.41
2022-08-11T12:21:17.209Z,99163.66
2022-08-11T12:24:04.562Z,99152.81
2022-08-11T12:27:15.674Z,99145.84
2022-08-11T12:29:47.433Z,99157.25
2022-08-11T12:32:20.247Z,99150.53
2022-08-11T12:34:49.663Z,99149.19
2022-08-11T12:37:23.695Z,99153.63
2022-08-11T12:40:43.782Z,99148.00
2022-08-11T12:43:21.055Z,99149.34
2022-08-11T12:45:53.689Z,99142.13
2022-08-11T12:48:58.598Z,99132.97
2022-08-11T12:52:01.520Z,99132.69
2022-08-11T12:54:31.414Z,99137.47
2022-08-11T12:57:17.703Z,99122.19
2022-08-11T13:00:20.153Z,99117.81
2022-08-11T13:03:02.452Z,99120.78
2022-08-11T13:05:33.208Z,99109.38
2022-08-11T13:08:10.517Z,99117.31
2022-08-11T13:10:52.642Z,99103.06
2022-08-11T13:13:55.177Z,99116.69
2022-08-11T13:16:14.928Z,99103.72
2022-08-11T13:18:45.171Z,99109.84
2022-08-11T13:21:20.788Z,99101.16
2022-08-11T13:24:00.405Z,99114.19
2022-08-11T13:26:43.363Z,99099.28
2022-08-11T13:29:21.503Z,99094.13
2022-08-11T13:31:51.293Z,99102.34
2022-08-11T13:34:21.403Z,99103.31
2022-08-11T13:36:52.404Z,99092.06
2022-08-11T13:39:23.940Z,99095.88
2022-08-11T13:41:54.232Z,99088.16
2022-08-11T13:44:27.237Z,99092.97
2022-08-11T13:46:59.203Z,99084.00
2022-08-11T13:49:29.226Z,99070.81
2022-08-11T13:51:58.871Z,99066.19
2022-08-11T13:54:30.678Z,99072.94
2022-08-11T13:57:00.842Z,99072.16
2022-08-11T13:59:33.571Z,99067.38
2022-08-11T14:02:21.188Z,99059.78
2022-08-11T14:04:58.891Z,99068.00
2022-08-11T14:07:32.158Z,99065.44
2022-08-11T14:10:02.608Z,99059.47
2022-08-11T14:12:45.399Z,99058.22
2022-08-11T14:15:20.269Z,99052.59
2022-08-11T14:17:52.140Z,99054.84
2022-08-11T14:20:39.485Z,99053.56
2022-08-11T14:23:08.463Z,99042.16
2022-08-11T14:26:01.039Z,99038.31
2022-08-11T14:28:36.554Z,99039.72
2022-08-11T14:31:14.784Z,99035.88
2022-08-11T14:34:00.169Z,99054.34
2022-08-11T14:36:33.991Z,99030.75
2022-08-11T14:39:04.774Z,99031.25
2022-08-11T14:42:10.220Z,99024.66
2022-08-11T14:44:50.141Z,99028.81
2022-08-11T14:47:23.865Z,99022.72
2022-08-11T14:50:09.825Z,99018.19
2022-08-11T14:52:42.103Z,99021.38
2022-08-11T14:55:39.480Z,99023.47
2022-08-11T14:58:11.128Z,99018.69
2022-08-11T15:00:41.514Z,99011.44
2022-08-11T15:03:12.896Z,99013.66
2022-08-11T15:05:57.127Z,99007.03
2022-08-11T15:08:44.207Z,99010.41
2022-08-11T15:11:26.966Z,99003.34
2022-08-11T15:13:56.960Z,98989.50
2022-08-11T15:16:39.509Z,98997.41
2022-08-11T15:19:12.150Z,99000.03
2022-08-11T15:21:54.150Z,98998.09
2022-08-11T15:24:24.251Z,99000.22
2022-08-11T15:27:10.303Z,99006.16
2022-08-11T15:29:54.038Z,98992.69
2022-08-11T15:32:36.886Z,98988.00
2022-08-11T15:35:22.198Z,98985.44
2022-08-11T15:37:57.394Z,98978.72
2022-08-11T15:40:40.694Z,98976.13
2022-08-11T15:43:29.426Z,98978.34
2022-08-11T15:46:02.473Z,98979.63
2022-08-11T15:48:37.380Z,98981.84
2022-08-11T15:51:11.964Z,98981.44
2022-08-11T15:53:43.760Z,98971.59
2022-08-11T15:56:27.446Z,98969.53
2022-08-11T15:59:40.703Z,98971.63
2022-08-11T16:02:13.063Z,98959.91
2022-08-11T16:04:47.207Z,98971.78
2022-08-11T16:07:26.650Z,98975.19
2022-08-11T16:10:00.527Z,98978.03
2022-08-11T16:12:31.844Z,98965.19
2022-08-11T16:15:15.054Z,98971.94
2022-08-11T16:17:51.666Z,98961.47
2022-08-11T16:20:23.258Z,98969.81
2022-08-11T16:23:01.863Z,98967.84
2022-08-11T16:27:09.539Z,98965.56
2022-08-11T16:28:24.800Z,98956.69
2022-08-11T16:30:54.782Z,98952.03
2022-08-11T16:33:50.708Z,98949.69
2022-08-11T16:36:44.425Z,98952.88
2022-08-11T16:39:19.908Z,98947.72
2022-08-11T16:42:02.776Z,98952.19
2022-08-11T16:44:45.158Z,98952.03
2022-08-11T16:47:16.562Z,98956.19
2022-08-11T16:49:52.777Z,98939.13
2022-08-11T16:52:23.102Z,98937.75
2022-08-11T16:54:55.253Z,98939.28
2022-08-11T16:57:38.778Z,98931.09
2022-08-11T17:00:12.495Z,98933.06
2022-08-11T17:02:57.050Z,98933.41
2022-08-11T17:05:54.189Z,98920.97
2022-08-11T17:08:41.299Z,98922.06
2022-08-11T17:11:34.477Z,98926.44
2022-08-11T17:14:07.837Z,98933.53
2022-08-11T17:16:38.996Z,98926.16
2022-08-11T17:19:11.703Z,98920.91
2022-08-11T17:22:03.748Z,98932.63
2022-08-11T17:24:32.468Z,98931.19
2022-08-11T17:27:07.565Z,98925.94
2022-08-11T17:29:53.875Z,98926.44
2022-08-11T17:32:56.166Z,98917.34
2022-08-11T17:35:32.973Z,98926.91
2022-08-11T17:38:04.670Z,98935.16
2022-08-11T17:40:37.130Z,98934.31
2022-08-11T17:43:22.720Z,98928.72
2022-08-11T17:46:04.580Z,98925.31
2022-08-11T17:48:37.743Z,98925.63
2022-08-11T17:51:39.989Z,98930.19
2022-08-11T17:54:24.610Z,98934.06
2022-08-11T17:57:08.823Z,98932.50
2022-08-11T17:59:57.103Z,98930.59
2022-08-11T18:02:56.258Z,98935.84
2022-08-11T18:05:27.206Z,98932.88
2022-08-11T18:08:10.105Z,98936.19
2022-08-11T18:10:52.423Z,98940.25
2022-08-11T18:13:36.819Z,98945.47
2022-08-11T18:16:21.791Z,98947.16
2022-08-11T18:19:03.621Z,98955.88
2022-08-11T18:21:45.793Z,98953.91
2022-08-11T18:24:52.553Z,98964.94
2022-08-11T18:27:36.179Z,98955.09
2022-08-11T18:30:18.755Z,98955.03
2022-08-11T18:33:39.734Z,98957.97
2022-08-11T18:36:08.620Z,98953.59
2022-08-11T18:38:52.300Z,98952.69
2022-08-11T18:41:36.960Z,98963.75
2022-08-11T18:44:20.450Z,98963.19
2022-08-11T18:47:05.975Z,98968.22
2022-08-11T18:50:01.953Z,98965.41
2022-08-11T18:52:46.551Z,98969.44
2022-08-11T18:55:29.999Z,98972.63
2022-08-11T18:58:13.252Z,98973.03
2022-08-11T19:00:57.039Z,98966.41
2022-08-11T19:03:48.592Z,98978.44
2022-08-11T19:06:40.260Z,98970.19
2022-08-11T19:09:25.444Z,98979.00
2022-08-11T19:12:08.847Z,98980.00
2022-08-11T19:14:53.591Z,98976.06
2022-08-11T19:17:44.981Z,98985.13
2022-08-11T19:20:29.876Z,98995.78
2022-08-11T19:23:14.638Z,98984.72
2022-08-11T19:25:58.656Z,98993.22
2022-08-11T19:28:40.947Z,98987.38
2022-08-11T19:31:23.177Z,98986.97
2022-08-11T19:34:10.630Z,98991.41
2022-08-11T19:36:53.230Z,98993.91
2022-08-11T19:39:41.943Z,98995.44
2022-08-11T19:42:24.170Z,99002.13
2022-08-11T19:45:06.165Z,98991.44
2022-08-11T19:47:48.713Z,99004.25
2022-08-11T19:50:31.281Z,99000.34
2022-08-11T19:53:17.487Z,99001.50
2022-08-11T19:56:03.485Z,99001.03
2022-08-11T19:58:45.470Z,99004.91
2022-08-11T20:01:27.460Z,99006.13
2022-08-11T20:04:09.417Z,99008.38
2022-08-11T20:06:51.894Z,99013.06
2022-08-11T20:10:05.139Z,99005.63
2022-08-11T20:12:40.491Z,99007.91
2022-08-11T20:15:23.608Z,99014.72
2022-08-11T20:18:05.889Z,99012.88
2022-08-11T20:20:48.457Z,99017.00
2022-08-11T20:23:32.008Z,99015.66
2022-08-11T20:26:30.330Z,99014.13
2022-08-11T20:29:16.179Z,99020.75
2022-08-11T20:31:58.784Z,99011.66
2022-08-11T20:34:40.919Z,99016.81
2022-08-11T20:37:23.104Z,99023.56
2022-08-11T20:40:05.712Z,99019.28
2022-08-11T20:42:48.945Z,99020.66
2022-08-11T20:45:34.553Z,99023.38
2022-08-11T20:48:17.761Z,99030.16
2022-08-11T20:51:00.981Z,99028.84
2022-08-11T20:53:50.093Z,99029.66
2022-08-11T20:56:34.240Z,99026.97
2022-08-11T21:02:03.428Z,99026.47
2022-08-11T21:04:54.456Z,99026.50
2022-08-11T21:07:41.197Z,99026.78
2022-08-11T21:10:25.684Z,99021.38
2022-08-11T21:13:26.435Z,99030.03
2022-08-11T21:16:10.402Z,99028.69
2022-08-11T21:19:09.094Z,99031.41
2022-08-11T21:21:51.691Z,99028.69
2022-08-11T21:24:36.886Z,99028.16
2022-08-11T21:27:25.061Z,99032.47
2022-08-11T21:30:07.695Z,99039.47
2022-08-11T21:32:50.513Z,99035.44
2022-08-11T21:35:35.297Z,99037.81
2022-08-11T21:38:19.750Z,99041.56
2022-08-11T21:41:03.561Z,99037.22
2022-08-11T21:43:46.949Z,99038.06
2022-08-11T21:46:31.162Z,99038.56
2022-08-11T21:49:16.455Z,99036.97
2022-08-11T21:52:02.239Z,99042.31
2022-08-11T21:54:44.470Z,99035.59
2022-08-11T21:57:26.832Z,99033.16
2022-08-11T22:00:10.817Z,99042.03
2022-08-11T22:02:53.868Z,99039.81
2022-08-11T22:05:36.124Z,99037.06
2022-08-11T22:08:21.497Z,99046.94
2022-08-11T22:11:03.498Z,99042.59
2022-08-11T22:14:05.773Z,99038.00
2022-08-11T22:16:47.212Z,99044.13
2022-08-11T22:20:03.260Z,99042.19
2022-08-11T22:22:52.425Z,99043.47
2022-08-11T22:25:38.524Z,99042.03
2022-08-11T22:28:20.851Z,99046.78
2022-08-11T22:31:02.669Z,99060.66
2022-08-11T22:34:02.329Z,99051.69
2022-08-11T22:36:45.509Z,99054.50
2022-08-11T22:39:27.789Z,99044.88
2022-08-11T22:42:12.296Z,99044.31
2022-08-11T22:44:54.181Z,99047.81
2022-08-11T22:47:40.701Z,99042.34
2022-08-11T22:50:23.819Z,99040.22
2022-08-11T22:53:06.472Z,99043.00
2022-08-11T22:55:48.523Z,99039.06
2022-08-11T22:58:33.069Z,99037.69
2022-08-11T23:01:15.312Z,99038.16
2022-08-11T23:03:57.458Z,99039.94
2022-08-11T23:06:39.659Z,99045.41
2022-08-11T23:09:22.317Z,99040.50
2022-08-11T23:12:06.985Z,99040.69
2022-08-11T23:14:54.932Z,99035.38
2022-08-11T23:17:37.483Z,99040.94
2022-08-11T23:20:28.673Z,99039.81
2022-08-11T23:23:18.861Z,99044.06
2022-08-11T23:26:01.003Z,99044.22
2022-08-11T23:28:43.700Z,99042.22
2022-08-11T23:31:29.630Z,99046.16
2022-08-11T23:34:41.800Z,99045.28
2022-08-11T23:37:37.160Z,99049.72
2022-08-11T23:40:20.147Z,99050.63
2022-08-11T23:43:03.202Z,99042.91
2022-08-11T23:45:45.001Z,99046.06
2022-08-11T23:48:31.441Z,99040.78
2022-08-11T23:51:14.096Z,99045.09
2022-08-11T23:53:56.825Z,99045.97
2022-08-11T23:56:38.830Z,99044.84
2022-08-11T23:59:21.620Z,99040.22
